createdAt,value
2023-04-27T00:02:20.743Z,2.30
2023-04-27T00:04:48.339Z,2.10
2023-04-27T00:07:15.864Z,2.25
2023-04-27T00:09:43.030Z,1.90
2023-04-27T00:12:10.263Z,2.17
2023-04-27T00:14:38.070Z,2.35
2023-04-27T00:17:05.278Z,1.95
2023-04-27T00:19:32.513Z,2.20
2023-04-27T00:22:00.594Z,2.40
2023-04-27T00:24:27.980Z,2.10
2023-04-27T00:26:55.128Z,2.22
2023-04-27T00:29:22.390Z,2.20
2023-04-27T00:31:49.540Z,1.95
2023-04-27T00:34:16.729Z,1.98
2023-04-27T00:36:44.038Z,1.92
2023-04-27T00:39:13.298Z,2.00
2023-04-27T00:41:40.797Z,1.92
2023-04-27T00:44:08.147Z,2.38
2023-04-27T00:46:37.101Z,2.00
2023-04-27T00:49:04.766Z,2.00
2023-04-27T00:51:32.384Z,2.00
2023-04-27T00:54:01.091Z,1.98
2023-04-27T00:56:28.328Z,2.00
2023-04-27T00:58:55.803Z,2.10
2023-04-27T01:01:23.935Z,1.90
2023-04-27T01:03:51.845Z,1.70
2023-04-27T01:06:19.203Z,1.70
2023-04-27T01:08:47.049Z,1.80
2023-04-27T01:11:14.459Z,1.63
2023-04-27T01:13:41.800Z,2.10
2023-04-27T01:16:09.171Z,2.00
2023-04-27T01:18:40.845Z,2.05
2023-04-27T01:21:08.265Z,2.20
2023-04-27T01:23:36.108Z,2.10
2023-04-27T01:26:04.654Z,2.20
2023-04-27T01:28:31.918Z,2.20
2023-04-27T01:31:01.306Z,2.20
2023-04-27T01:33:28.506Z,2.40
2023-04-27T01:35:56.029Z,2.10
2023-04-27T01:38:24.259Z,2.10
2023-04-27T01:40:51.725Z,2.00
2023-04-27T01:43:22.028Z,2.30
2023-04-27T01:45:49.143Z,2.20
2023-04-27T01:48:16.730Z,1.80
2023-04-27T01:50:44.596Z,2.30
2023-04-27T01:53:11.696Z,2.10
2023-04-27T01:55:38.972Z,1.90
2023-04-27T01:58:06.241Z,2.03
2023-04-27T02:00:33.826Z,1.98
2023-04-27T02:03:01.412Z,2.17
2023-04-27T02:05:29.044Z,1.90
2023-04-27T02:07:56.291Z,1.80
2023-04-27T02:10:23.880Z,1.70
2023-04-27T02:12:57.338Z,1.95
2023-04-27T02:15:24.821Z,1.67
2023-04-27T02:17:52.095Z,2.08
2023-04-27T02:20:19.531Z,1.75
2023-04-27T02:22:46.816Z,1.70
2023-04-27T02:25:14.004Z,1.88
2023-04-27T02:27:43.635Z,2.13
2023-04-27T02:30:12.745Z,1.90
2023-04-27T02:32:41.618Z,2.08
2023-04-27T02:35:09.967Z,2.20
2023-04-27T02:37:37.947Z,2.00
2023-04-27T02:40:08.073Z,2.00
2023-04-27T02:42:39.167Z,1.80
2023-04-27T02:45:08.560Z,2.45
2023-04-27T02:47:37.512Z,2.22
2023-04-27T02:50:05.127Z,1.80
2023-04-27T02:52:34.812Z,2.10
2023-04-27T02:55:01.963Z,2.15
2023-04-27T02:57:32.863Z,1.98
2023-04-27T03:00:00.202Z,2.15
2023-04-27T03:02:27.624Z,2.00
2023-04-27T03:04:55.399Z,1.95
2023-04-27T03:07:23.129Z,2.10
2023-04-27T03:09:50.259Z,2.17
2023-04-27T03:12:17.453Z,1.90
2023-04-27T03:14:44.802Z,2.08
2023-04-27T03:17:12.030Z,1.92
2023-04-27T03:19:40.549Z,1.90
2023-04-27T03:22:07.713Z,2.03
2023-04-27T03:24:35.802Z,2.05
2023-04-27T03:27:02.962Z,2.05
2023-04-27T03:29:30.556Z,1.70
2023-04-27T03:31:57.857Z,2.28
2023-04-27T03:34:24.980Z,2.20
2023-04-27T03:36:52.124Z,2.17
2023-04-27T03:39:19.370Z,1.95
2023-04-27T03:41:46.624Z,1.98
2023-04-27T03:44:13.969Z,1.92
2023-04-27T03:46:42.106Z,2.10
2023-04-27T03:49:09.305Z,2.40
2023-04-27T03:51:38.453Z,2.15
2023-04-27T03:54:05.832Z,2.25
2023-04-27T03:56:33.131Z,2.30
2023-04-27T03:59:01.099Z,1.90
2023-04-27T04:01:34.853Z,1.90
2023-04-27T04:04:02.512Z,1.92
2023-04-27T04:06:32.091Z,1.80
2023-04-27T04:08:59.224Z,2.20
2023-04-27T04:11:27.539Z,2.38
2023-04-27T04:13:57.645Z,2.03
2023-04-27T04:16:24.889Z,2.05
2023-04-27T04:18:53.653Z,2.30
2023-04-27T04:21:21.772Z,2.30
2023-04-27T04:23:48.914Z,1.80
2023-04-27T04:26:16.817Z,1.90
2023-04-27T04:28:44.667Z,1.70
2023-04-27T04:31:11.791Z,1.80
2023-04-27T04:33:39.820Z,1.98
2023-04-27T04:36:07.916Z,1.80
2023-04-27T04:38:35.179Z,1.90
2023-04-27T04:41:02.523Z,2.00
2023-04-27T04:43:32.947Z,1.83
2023-04-27T04:46:04.426Z,1.70
2023-04-27T04:48:32.547Z,2.15
2023-04-27T04:50:59.680Z,1.80
2023-04-27T04:53:27.111Z,1.85
2023-04-27T04:55:56.714Z,1.90
2023-04-27T04:58:23.990Z,2.15
2023-04-27T05:00:51.217Z,2.15
2023-04-27T05:03:18.916Z,1.90
2023-04-27T05:05:47.991Z,1.70
2023-04-27T05:08:16.599Z,2.10
2023-04-27T05:10:49.901Z,2.35
2023-04-27T05:13:17.557Z,1.98
2023-04-27T05:15:44.700Z,2.03
2023-04-27T05:18:12.012Z,1.60
2023-04-27T05:20:39.469Z,1.63
2023-04-27T05:23:06.703Z,1.83
2023-04-27T05:25:37.787Z,2.08
2023-04-27T05:28:05.128Z,1.75
2023-04-27T05:30:32.402Z,2.10
2023-04-27T05:32:59.747Z,1.58
2023-04-27T05:35:26.906Z,1.67
2023-04-27T05:37:54.115Z,1.90
2023-04-27T05:40:21.805Z,1.77
2023-04-27T05:42:49.858Z,1.80
2023-04-27T05:45:17.055Z,1.90
2023-04-27T05:47:44.303Z,1.92
2023-04-27T05:50:11.962Z,1.85
2023-04-27T05:52:53.128Z,2.00
2023-04-27T05:55:20.292Z,1.98
2023-04-27T05:57:54.507Z,2.30
2023-04-27T06:00:32.369Z,1.80
2023-04-27T06:02:59.576Z,1.90
2023-04-27T06:05:26.942Z,1.80
2023-04-27T06:07:54.237Z,1.90
2023-04-27T06:10:21.460Z,2.00
2023-04-27T06:12:48.522Z,1.90
2023-04-27T06:15:16.019Z,1.92
2023-04-27T06:17:46.090Z,1.73
2023-04-27T06:20:13.512Z,1.98
2023-04-27T06:22:40.672Z,2.20
2023-04-27T06:25:08.392Z,2.00
2023-04-27T06:27:35.672Z,2.00
2023-04-27T06:30:03.148Z,1.70
2023-04-27T06:32:32.951Z,1.65
2023-04-27T06:35:00.153Z,1.88
2023-04-27T06:37:27.418Z,1.80
2023-04-27T06:39:54.809Z,1.65
2023-04-27T06:42:22.068Z,1.70
2023-04-27T06:44:52.315Z,1.80
2023-04-27T06:47:19.575Z,1.70
2023-04-27T06:49:48.525Z,1.45
2023-04-27T06:52:17.658Z,1.38
2023-04-27T06:54:46.516Z,1.50
2023-04-27T06:57:13.810Z,1.45
2023-04-27T06:59:41.010Z,1.60
2023-04-27T07:10:17.255Z,1.65
2023-04-27T07:12:45.721Z,1.85
2023-04-27T07:15:13.505Z,1.88
2023-04-27T07:17:40.671Z,1.90
2023-04-27T07:20:08.854Z,1.90
2023-04-27T07:22:36.623Z,2.30
2023-04-27T07:25:05.532Z,1.60
2023-04-27T07:27:33.307Z,1.60
2023-04-27T07:30:00.443Z,1.70
2023-04-27T07:32:29.260Z,1.95
2023-04-27T07:34:57.146Z,1.73
2023-04-27T07:37:24.383Z,1.75
2023-04-27T07:39:54.888Z,1.75
2023-04-27T07:42:25.445Z,1.90
2023-04-27T07:44:52.772Z,1.60
2023-04-27T07:47:20.129Z,1.70
2023-04-27T07:49:47.544Z,1.60
2023-04-27T07:52:14.865Z,1.90
2023-04-27T07:54:42.058Z,1.50
2023-04-27T07:57:11.664Z,1.60
2023-04-27T07:59:39.417Z,1.50
2023-04-27T08:02:17.759Z,1.95
2023-04-27T08:04:49.554Z,1.60
2023-04-27T08:07:17.822Z,1.95
2023-04-27T08:09:45.209Z,1.83
2023-04-27T08:12:12.645Z,1.83
2023-04-27T08:14:39.947Z,1.67
2023-04-27T08:17:07.223Z,1.60
2023-04-27T08:19:34.776Z,1.90
2023-04-27T08:22:02.851Z,1.75
2023-04-27T08:24:30.103Z,1.60
2023-04-27T08:26:57.688Z,1.42
2023-04-27T08:29:28.855Z,1.85
2023-04-27T08:32:00.691Z,1.50
2023-04-27T08:34:29.028Z,1.58
2023-04-27T08:36:57.222Z,1.42
2023-04-27T08:39:25.801Z,1.60
2023-04-27T08:41:53.514Z,1.50
2023-04-27T08:44:20.822Z,1.60
2023-04-27T08:46:48.463Z,1.75
2023-04-27T08:49:17.077Z,1.73
2023-04-27T08:51:44.844Z,1.80
2023-04-27T08:54:13.168Z,1.50
2023-04-27T08:56:41.915Z,1.67
2023-04-27T08:59:15.778Z,1.45
2023-04-27T09:04:18.289Z,1.40
2023-04-27T09:06:46.361Z,1.38
2023-04-27T09:09:23.876Z,1.60
2023-04-27T09:11:51.650Z,1.38
2023-04-27T09:14:21.928Z,1.42
2023-04-27T09:16:57.900Z,1.50
2023-04-27T09:19:29.926Z,1.50
2023-04-27T09:22:11.388Z,1.52
2023-04-27T09:24:39.312Z,1.77
2023-04-27T09:27:08.774Z,1.70
2023-04-27T09:29:37.835Z,1.65
2023-04-27T09:32:19.245Z,1.50
2023-04-27T09:34:47.053Z,1.45
2023-04-27T09:37:14.683Z,1.58
2023-04-27T09:39:42.926Z,1.50
2023-04-27T09:42:12.652Z,1.30
2023-04-27T09:44:39.828Z,1.52
2023-04-27T09:47:07.842Z,1.23
2023-04-27T09:49:36.408Z,1.55
2023-04-27T09:52:04.505Z,1.30
2023-04-27T09:54:34.745Z,1.60
2023-04-27T09:57:13.567Z,1.60
2023-04-27T10:00:11.224Z,1.50
2023-04-27T10:02:53.657Z,1.40
2023-04-27T10:05:37.910Z,1.60
2023-04-27T10:08:06.833Z,1.33
2023-04-27T10:10:44.411Z,1.40
2023-04-27T10:13:24.056Z,1.60
2023-04-27T10:15:52.690Z,1.80
2023-04-27T10:18:33.428Z,1.40
2023-04-27T10:21:10.953Z,1.65
2023-04-27T10:23:51.254Z,1.50
2023-04-27T10:26:27.015Z,1.50
2023-04-27T10:29:07.496Z,1.40
2023-04-27T10:31:35.971Z,1.40
2023-04-27T10:34:11.088Z,1.23
2023-04-27T10:36:41.326Z,1.60
2023-04-27T10:39:36.186Z,1.40
2023-04-27T10:42:13.343Z,1.43
2023-04-27T10:44:40.469Z,1.60
2023-04-27T10:47:20.025Z,1.27
2023-04-27T10:49:47.281Z,1.33
2023-04-27T10:52:14.861Z,1.40
2023-04-27T10:54:47.330Z,1.50
2023-04-27T10:57:14.649Z,1.73
2023-04-27T10:59:53.699Z,1.30
2023-04-27T11:02:29.022Z,1.30
2023-04-27T11:04:56.801Z,1.20
2023-04-27T11:07:28.559Z,1.48
2023-04-27T11:09:56.140Z,1.30
2023-04-27T11:12:24.262Z,1.42
2023-04-27T11:14:57.987Z,1.77
2023-04-27T11:17:30.185Z,2.05
2023-04-27T11:19:57.304Z,1.88
2023-04-27T11:22:24.650Z,1.70
2023-04-27T11:24:53.630Z,1.73
2023-04-27T11:27:23.556Z,1.30
2023-04-27T11:29:51.472Z,1.60
2023-04-27T11:32:23.116Z,1.90
2023-04-27T11:34:53.666Z,1.23
2023-04-27T11:37:24.975Z,1.60
2023-04-27T11:39:54.270Z,1.50
2023-04-27T11:42:24.489Z,1.50
2023-04-27T11:44:53.744Z,1.50
2023-04-27T11:47:22.775Z,1.75
2023-04-27T11:49:52.277Z,1.63
2023-04-27T11:52:19.489Z,1.50
2023-04-27T11:54:48.732Z,1.50
2023-04-27T11:57:16.588Z,1.90
2023-04-27T11:59:43.972Z,1.67
2023-04-27T12:02:11.334Z,1.70
2023-04-27T12:04:38.832Z,1.88
2023-04-27T12:07:06.263Z,1.80
2023-04-27T12:09:34.619Z,1.70
2023-04-27T12:12:02.707Z,1.60
2023-04-27T12:14:30.077Z,1.67
2023-04-27T12:16:57.332Z,1.73
2023-04-27T12:19:26.114Z,1.52
2023-04-27T12:21:54.173Z,1.55
2023-04-27T12:24:21.932Z,1.70
2023-04-27T12:26:49.610Z,1.92
2023-04-27T12:29:16.902Z,1.70
2023-04-27T12:31:44.762Z,1.95
2023-04-27T12:34:13.114Z,1.50
2023-04-27T12:36:41.438Z,1.40
2023-04-27T12:39:16.037Z,1.65
2023-04-27T12:41:48.405Z,1.70
2023-04-27T12:44:17.011Z,1.60
2023-04-27T12:46:45.011Z,1.50
2023-04-27T12:49:15.182Z,1.70
2023-04-27T12:51:42.622Z,1.60
2023-04-27T12:54:11.433Z,1.70
2023-04-27T12:56:38.841Z,1.75
2023-04-27T12:59:08.816Z,1.70
2023-04-27T13:01:36.342Z,1.45
2023-04-27T13:04:06.240Z,1.60
2023-04-27T13:06:33.594Z,1.55
2023-04-27T13:09:01.214Z,1.70
2023-04-27T13:11:28.930Z,1.40
2023-04-27T13:13:56.076Z,1.70
2023-04-27T13:16:25.680Z,1.65
2023-04-27T13:18:55.613Z,1.73
2023-04-27T13:21:23.508Z,1.75
2023-04-27T13:23:51.855Z,1.48
2023-04-27T13:26:19.183Z,1.60
2023-04-27T13:28:46.325Z,1.63
2023-04-27T13:31:13.668Z,1.60
2023-04-27T13:33:43.408Z,1.48
2023-04-27T13:36:11.505Z,1.38
2023-04-27T13:38:39.413Z,1.55
2023-04-27T13:41:07.041Z,1.38
2023-04-27T13:43:34.580Z,1.52
2023-04-27T13:46:03.074Z,1.70
2023-04-27T13:48:31.325Z,1.60
2023-04-27T13:50:58.979Z,1.60
2023-04-27T13:53:26.749Z,1.58
2023-04-27T13:55:55.213Z,1.42
2023-04-27T13:58:25.090Z,1.52
2023-04-27T14:00:53.600Z,1.90
2023-04-27T14:03:21.738Z,1.70
2023-04-27T14:05:51.153Z,1.80
2023-04-27T14:08:18.736Z,1.60
2023-04-27T14:10:46.746Z,1.80
2023-04-27T14:13:14.512Z,1.60
2023-04-27T14:15:42.243Z,1.85
2023-04-27T14:18:09.913Z,1.85
2023-04-27T14:20:39.100Z,1.80
2023-04-27T14:23:07.148Z,1.65
2023-04-27T14:25:35.255Z,1.60
2023-04-27T14:28:04.803Z,2.10
2023-04-27T14:30:35.687Z,1.95
2023-04-27T14:33:03.410Z,1.80
2023-04-27T14:35:30.953Z,1.88
2023-04-27T14:38:02.356Z,1.60
2023-04-27T14:40:33.168Z,1.92
2023-04-27T14:43:00.574Z,1.80
2023-04-27T14:45:36.596Z,1.70
2023-04-27T14:48:07.631Z,1.73
2023-04-27T14:50:35.141Z,1.90
2023-04-27T14:53:02.395Z,1.70
2023-04-27T14:55:29.702Z,1.50
2023-04-27T14:57:56.906Z,1.60
2023-04-27T15:00:24.448Z,1.60
2023-04-27T15:02:51.850Z,1.55
2023-04-27T15:05:19.023Z,1.75
2023-04-27T15:07:46.407Z,1.90
2023-04-27T15:10:13.605Z,2.35
2023-04-27T15:12:40.863Z,2.47
2023-04-27T15:15:10.523Z,2.40
2023-04-27T15:17:38.007Z,2.75
2023-04-27T15:20:06.297Z,2.47
2023-04-27T15:22:33.795Z,2.10
2023-04-27T15:25:00.869Z,2.05
2023-04-27T15:27:28.078Z,2.25
2023-04-27T15:29:55.844Z,2.05
2023-04-27T15:32:24.904Z,2.10
2023-04-27T15:34:52.335Z,2.20
2023-04-27T15:37:19.598Z,2.00
2023-04-27T15:39:46.732Z,2.30
2023-04-27T15:42:13.917Z,2.08
2023-04-27T15:44:41.089Z,2.10
2023-04-27T15:47:08.472Z,1.85
2023-04-27T15:49:45.899Z,1.90
2023-04-27T15:52:21.672Z,1.98
2023-04-27T15:54:48.917Z,2.15
2023-04-27T15:57:16.316Z,2.22
2023-04-27T15:59:43.552Z,1.80
2023-04-27T16:02:10.945Z,2.03
2023-04-27T16:04:38.363Z,2.10
2023-04-27T16:07:08.911Z,2.00
2023-04-27T16:09:36.456Z,1.98
2023-04-27T16:12:04.002Z,2.50
2023-04-27T16:14:31.419Z,2.30
2023-04-27T16:17:02.568Z,2.20
2023-04-27T16:19:29.928Z,2.33
2023-04-27T16:21:57.789Z,2.35
2023-04-27T16:24:27.162Z,2.92
2023-04-27T16:26:54.404Z,2.90
2023-04-27T16:29:21.516Z,2.97
2023-04-27T16:31:53.315Z,2.47
2023-04-27T16:34:20.704Z,3.10
2023-04-27T16:36:48.725Z,2.80
2023-04-27T16:39:16.461Z,2.70
2023-04-27T16:41:43.853Z,2.50
2023-04-27T16:44:12.895Z,2.70
2023-04-27T16:46:40.444Z,2.78
2023-04-27T16:49:08.390Z,2.25
2023-04-27T16:51:36.411Z,2.50
2023-04-27T16:54:04.081Z,2.63
2023-04-27T16:56:35.393Z,2.03
2023-04-27T16:59:04.469Z,2.03
2023-04-27T17:01:31.785Z,2.15
2023-04-27T17:04:02.328Z,2.47
2023-04-27T17:06:30.121Z,2.65
2023-04-27T17:08:58.053Z,2.25
2023-04-27T17:11:25.395Z,2.10
2023-04-27T17:13:52.689Z,2.08
2023-04-27T17:16:20.201Z,1.90
2023-04-27T17:18:47.991Z,2.20
2023-04-27T17:21:16.799Z,2.05
2023-04-27T17:23:46.693Z,2.28
2023-04-27T17:26:16.117Z,1.95
2023-04-27T17:28:43.610Z,2.08
2023-04-27T17:31:10.790Z,1.90
2023-04-27T17:33:39.322Z,2.42
2023-04-27T17:36:09.786Z,2.40
2023-04-27T17:38:37.750Z,2.13
2023-04-27T17:41:05.017Z,2.58
2023-04-27T17:43:32.245Z,2.47
2023-04-27T17:45:59.410Z,2.42
2023-04-27T17:48:26.990Z,2.40
2023-04-27T17:50:54.798Z,2.70
2023-04-27T17:53:21.990Z,2.40
2023-04-27T17:55:49.216Z,2.50
2023-04-27T17:58:17.213Z,2.20
2023-04-27T18:00:44.420Z,2.38
2023-04-27T18:03:15.562Z,2.40
2023-04-27T18:05:43.203Z,1.85
2023-04-27T18:08:11.059Z,1.73
2023-04-27T18:10:38.253Z,2.47
2023-04-27T18:13:05.384Z,2.45
2023-04-27T18:15:32.620Z,2.33
2023-04-27T18:17:59.846Z,2.30
2023-04-27T18:20:28.057Z,2.10
2023-04-27T18:22:55.344Z,2.40
2023-04-27T18:25:23.246Z,2.25
2023-04-27T18:27:55.258Z,2.03
2023-04-27T18:30:23.053Z,2.35
2023-04-27T18:32:51.986Z,2.00
2023-04-27T18:35:19.178Z,2.15
2023-04-27T18:37:48.626Z,2.40
2023-04-27T18:40:20.223Z,2.10
2023-04-27T18:42:48.282Z,2.30
2023-04-27T18:45:15.976Z,2.30
2023-04-27T18:47:43.239Z,2.28
2023-04-27T18:50:13.811Z,2.20
2023-04-27T18:52:41.233Z,2.58
2023-04-27T18:55:09.516Z,2.22
2023-04-27T18:57:37.209Z,2.10
2023-04-27T19:00:06.252Z,2.20
2023-04-27T19:02:34.173Z,2.45
2023-04-27T19:07:34.766Z,2.15
2023-04-27T19:10:01.885Z,2.72
2023-04-27T19:12:30.984Z,2.30
2023-04-27T19:14:58.144Z,2.35
2023-04-27T19:17:26.415Z,2.17
2023-04-27T19:19:53.893Z,2.88
2023-04-27T19:22:21.212Z,2.45
2023-04-27T19:24:48.641Z,2.50
2023-04-27T19:27:16.049Z,2.13
2023-04-27T19:29:54.618Z,2.90
2023-04-27T19:32:26.803Z,2.63
2023-04-27T19:34:58.617Z,2.25
2023-04-27T19:37:28.724Z,2.53
2023-04-27T19:39:56.050Z,2.50
2023-04-27T19:42:25.039Z,2.53
2023-04-27T19:44:52.248Z,2.70
2023-04-27T19:47:19.561Z,2.63
2023-04-27T19:49:48.743Z,2.33
2023-04-27T19:52:15.994Z,3.17
2023-04-27T19:54:43.254Z,2.53
2023-04-27T19:57:10.809Z,2.30
2023-04-27T19:59:38.112Z,2.70
2023-04-27T20:02:05.507Z,2.95
2023-04-27T20:04:33.057Z,2.97
2023-04-27T20:07:02.168Z,3.45
2023-04-27T20:09:30.528Z,2.95
2023-04-27T20:11:57.664Z,3.30
2023-04-27T20:14:25.290Z,2.95
2023-04-27T20:16:52.474Z,2.88
2023-04-27T20:19:20.885Z,2.85
2023-04-27T20:21:48.567Z,2.92
2023-04-27T20:24:16.604Z,2.63
2023-04-27T20:26:44.088Z,2.58
2023-04-27T20:29:11.681Z,2.75
2023-04-27T20:31:39.074Z,2.90
2023-04-27T20:34:06.348Z,2.78
2023-04-27T20:36:33.901Z,2.72
2023-04-27T20:39:01.081Z,2.60
2023-04-27T20:41:28.576Z,2.78
2023-04-27T20:43:55.773Z,2.72
2023-04-27T20:46:23.035Z,2.47
2023-04-27T20:48:50.192Z,2.78
2023-04-27T20:51:18.058Z,2.40
2023-04-27T20:53:45.192Z,3.28
2023-04-27T20:56:12.325Z,2.60
2023-04-27T20:58:39.556Z,2.67
2023-04-27T21:01:06.884Z,2.78
2023-04-27T21:03:34.320Z,2.47
2023-04-27T21:06:01.560Z,2.40
2023-04-27T21:08:29.066Z,2.70
2023-04-27T21:10:57.351Z,2.50
2023-04-27T21:13:24.866Z,2.70
2023-04-27T21:15:52.172Z,2.90
2023-04-27T21:18:29.583Z,2.65
2023-04-27T21:20:58.220Z,2.90
2023-04-27T21:23:25.462Z,3.20
2023-04-27T21:25:52.692Z,3.08
2023-04-27T21:28:20.603Z,2.88
2023-04-27T21:30:47.974Z,3.20
2023-04-27T21:33:15.256Z,3.00
2023-04-27T21:35:42.487Z,3.17
2023-04-27T21:38:09.679Z,3.10
2023-04-27T21:40:37.173Z,3.58
2023-04-27T21:43:04.314Z,3.28
2023-04-27T21:45:34.869Z,3.35
2023-04-27T21:48:02.522Z,2.90
2023-04-27T21:50:30.023Z,3.30
2023-04-27T21:52:57.127Z,3.03
2023-04-27T21:55:24.425Z,3.33
2023-04-27T21:57:51.507Z,3.63
2023-04-27T22:00:19.135Z,4.22
2023-04-27T22:02:48.638Z,3.60
2023-04-27T22:05:16.543Z,3.75
2023-04-27T22:07:46.088Z,4.38
2023-04-27T22:10:13.606Z,4.88
2023-04-27T22:12:41.194Z,3.97
2023-04-27T22:15:08.823Z,3.60
2023-04-27T22:17:36.102Z,4.10
2023-04-27T22:20:05.170Z,3.70
2023-04-27T22:22:32.452Z,3.88
2023-04-27T22:24:59.907Z,4.32
2023-04-27T22:27:35.363Z,4.00
2023-04-27T22:30:10.260Z,3.90
2023-04-27T22:32:37.952Z,4.53
2023-04-27T22:35:08.762Z,4.15
2023-04-27T22:37:40.882Z,3.53
2023-04-27T22:40:08.967Z,3.78
2023-04-27T22:42:36.040Z,4.30
2023-04-27T22:45:03.565Z,4.32
2023-04-27T22:47:33.449Z,4.18
2023-04-27T22:50:01.450Z,3.63
2023-04-27T22:52:33.836Z,3.70
2023-04-27T22:55:03.829Z,4.53
2023-04-27T22:57:31.639Z,4.43
2023-04-27T22:59:58.716Z,3.80
2023-04-27T23:02:26.098Z,3.85
2023-04-27T23:04:53.258Z,3.72
2023-04-27T23:07:20.749Z,3.97
2023-04-27T23:09:48.334Z,3.70
2023-04-27T23:12:15.911Z,3.53
2023-04-27T23:14:43.140Z,4.15
2023-04-27T23:17:10.482Z,4.25
2023-04-27T23:19:37.869Z,4.18
2023-04-27T23:22:05.269Z,4.05
2023-04-27T23:24:32.458Z,4.32
2023-04-27T23:26:59.789Z,3.83
2023-04-27T23:29:26.879Z,3.75
2023-04-27T23:31:54.125Z,4.97
2023-04-27T23:34:21.391Z,3.90
2023-04-27T23:36:48.475Z,3.92
2023-04-27T23:39:15.865Z,3.72
2023-04-27T23:41:43.057Z,4.25
2023-04-27T23:44:10.215Z,4.22
2023-04-27T23:46:37.503Z,4.30
2023-04-27T23:49:04.655Z,3.70
2023-04-27T23:51:33.312Z,4.20
2023-04-27T23:54:00.486Z,4.22
2023-04-27T23:56:27.690Z,4.63
2023-04-27T23:58:54.868Z,4.18
